sensor_id;sensor_type;location;lat;lon;timestamp;P1;durP1;ratioP1;P2;durP2;ratioP2
1404;SDS011;697;51.114;6.542;2023-09-07T00:00:32;7.60;;;6.90;;
1404;SDS011;697;51.114;6.542;2023-09-07T00:02:59;6.47;;;5.87;;
1404;SDS011;697;51.114;6.542;2023-09-07T00:05:25;10.30;;;6.73;;
1404;SDS011;697;51.114;6.542;2023-09-07T00:07:52;7.23;;;6.53;;
1404;SDS011;697;51.114;6.542;2023-09-07T00:10:20;7.07;;;5.90;;
1404;SDS011;697;51.114;6.542;2023-09-07T00:12:47;10.53;;;6.63;;
1404;SDS011;697;51.114;6.542;2023-09-07T00:15:13;6.33;;;5.83;;
1404;SDS011;697;51.114;6.542;2023-09-07T00:17:40;6.60;;;5.73;;
1404;SDS011;697;51.114;6.542;2023-09-07T00:20:07;8.47;;;6.30;;
1404;SDS011;697;51.114;6.542;2023-09-07T00:22:39;7.50;;;6.27;;
1404;SDS011;697;51.114;6.542;2023-09-07T00:25:06;8.90;;;6.70;;
1404;SDS011;697;51.114;6.542;2023-09-07T00:27:35;7.07;;;6.40;;
1404;SDS011;697;51.114;6.542;2023-09-07T00:30:02;7.20;;;6.40;;
1404;SDS011;697;51.114;6.542;2023-09-07T00:32:31;8.23;;;6.40;;
1404;SDS011;697;51.114;6.542;2023-09-07T00:34:59;7.97;;;7.17;;
1404;SDS011;697;51.114;6.542;2023-09-07T00:37:25;6.93;;;6.33;;
1404;SDS011;697;51.114;6.542;2023-09-07T00:39:52;7.33;;;6.20;;
1404;SDS011;697;51.114;6.542;2023-09-07T00:42:19;6.80;;;6.20;;
1404;SDS011;697;51.114;6.542;2023-09-07T00:44:47;10.17;;;6.80;;
1404;SDS011;697;51.114;6.542;2023-09-07T00:47:14;8.83;;;6.00;;
1404;SDS011;697;51.114;6.542;2023-09-07T00:49:41;7.63;;;6.33;;
1404;SDS011;697;51.114;6.542;2023-09-07T00:52:08;7.03;;;6.13;;
1404;SDS011;697;51.114;6.542;2023-09-07T00:54:34;7.27;;;6.23;;
1404;SDS011;697;51.114;6.542;2023-09-07T00:57:03;8.90;;;5.83;;
1404;SDS011;697;51.114;6.542;2023-09-07T00:59:31;6.00;;;5.33;;
1404;SDS011;697;51.114;6.542;2023-09-07T01:02:00;6.57;;;5.80;;
1404;SDS011;697;51.114;6.542;2023-09-07T01:04:26;6.70;;;6.00;;
1404;SDS011;697;51.114;6.542;2023-09-07T01:06:55;6.70;;;6.00;;
1404;SDS011;697;51.114;6.542;2023-09-07T01:09:26;6.67;;;5.97;;
1404;SDS011;697;51.114;6.542;2023-09-07T01:11:54;7.07;;;6.00;;
1404;SDS011;697;51.114;6.542;2023-09-07T01:14:21;7.20;;;6.03;;
1404;SDS011;697;51.114;6.542;2023-09-07T01:16:48;7.03;;;6.23;;
1404;SDS011;697;51.114;6.542;2023-09-07T01:19:16;7.33;;;6.60;;
1404;SDS011;697;51.114;6.542;2023-09-07T01:21:45;8.70;;;6.80;;
1404;SDS011;697;51.114;6.542;2023-09-07T01:24:12;8.00;;;7.20;;
1404;SDS011;697;51.114;6.542;2023-09-07T01:26:41;7.37;;;6.70;;
1404;SDS011;697;51.114;6.542;2023-09-07T01:29:08;7.63;;;6.90;;
1404;SDS011;697;51.114;6.542;2023-09-07T01:31:35;7.00;;;6.40;;
1404;SDS011;697;51.114;6.542;2023-09-07T01:34:03;8.30;;;6.30;;
1404;SDS011;697;51.114;6.542;2023-09-07T01:36:31;7.87;;;7.17;;
1404;SDS011;697;51.114;6.542;2023-09-07T01:38:59;7.60;;;6.90;;
1404;SDS011;697;51.114;6.542;2023-09-07T01:41:26;7.13;;;6.53;;
1404;SDS011;697;51.114;6.542;2023-09-07T01:43:54;8.03;;;7.30;;
1404;SDS011;697;51.114;6.542;2023-09-07T01:46:20;7.90;;;7.20;;
1404;SDS011;697;51.114;6.542;2023-09-07T01:48:47;8.07;;;7.30;;
1404;SDS011;697;51.114;6.542;2023-09-07T01:51:14;8.47;;;7.20;;
1404;SDS011;697;51.114;6.542;2023-09-07T01:53:40;8.03;;;6.73;;
1404;SDS011;697;51.114;6.542;2023-09-07T01:56:08;7.73;;;6.93;;
1404;SDS011;697;51.114;6.542;2023-09-07T01:58:35;7.80;;;7.20;;
1404;SDS011;697;51.114;6.542;2023-09-07T02:01:02;9.30;;;7.30;;
1404;SDS011;697;51.114;6.542;2023-09-07T02:03:29;8.30;;;7.50;;
1404;SDS011;697;51.114;6.542;2023-09-07T02:05:55;8.13;;;7.30;;
1404;SDS011;697;51.114;6.542;2023-09-07T02:08:22;7.60;;;6.90;;
1404;SDS011;697;51.114;6.542;2023-09-07T02:10:49;7.97;;;7.17;;
1404;SDS011;697;51.114;6.542;2023-09-07T02:13:17;7.17;;;6.47;;
1404;SDS011;697;51.114;6.542;2023-09-07T02:15:43;8.10;;;6.37;;
1404;SDS011;697;51.114;6.542;2023-09-07T02:18:10;7.73;;;7.03;;
1404;SDS011;697;51.114;6.542;2023-09-07T02:20:37;8.53;;;7.83;;
1404;SDS011;697;51.114;6.542;2023-09-07T02:23:04;8.20;;;7.40;;
1404;SDS011;697;51.114;6.542;2023-09-07T02:25:30;8.33;;;7.43;;
1404;SDS011;697;51.114;6.542;2023-09-07T02:27:57;8.30;;;7.33;;
1404;SDS011;697;51.114;6.542;2023-09-07T02:30:25;7.67;;;6.53;;
1404;SDS011;697;51.114;6.542;2023-09-07T02:32:52;9.17;;;7.70;;
1404;SDS011;697;51.114;6.542;2023-09-07T02:35:19;7.00;;;6.40;;
1404;SDS011;697;51.114;6.542;2023-09-07T02:37:45;8.63;;;7.83;;
1404;SDS011;697;51.114;6.542;2023-09-07T02:40:12;8.10;;;7.13;;
1404;SDS011;697;51.114;6.542;2023-09-07T02:42:40;11.47;;;7.30;;
1404;SDS011;697;51.114;6.542;2023-09-07T02:45:09;8.23;;;7.43;;
1404;SDS011;697;51.114;6.542;2023-09-07T02:47:37;7.70;;;7.00;;
1404;SDS011;697;51.114;6.542;2023-09-07T02:50:05;8.00;;;7.20;;
1404;SDS011;697;51.114;6.542;2023-09-07T02:52:32;9.03;;;7.27;;
1404;SDS011;697;51.114;6.542;2023-09-07T02:54:58;7.50;;;6.80;;
1404;SDS011;697;51.114;6.542;2023-09-07T02:57:25;8.33;;;7.30;;
1404;SDS011;697;51.114;6.542;2023-09-07T02:59:52;7.53;;;6.57;;
1404;SDS011;697;51.114;6.542;2023-09-07T03:02:19;9.37;;;8.47;;
1404;SDS011;697;51.114;6.542;2023-09-07T03:04:47;7.73;;;7.13;;
1404;SDS011;697;51.114;6.542;2023-09-07T03:07:13;9.00;;;7.07;;
1404;SDS011;697;51.114;6.542;2023-09-07T03:09:40;8.70;;;7.87;;
1404;SDS011;697;51.114;6.542;2023-09-07T03:12:07;7.90;;;7.20;;
1404;SDS011;697;51.114;6.542;2023-09-07T03:14:34;10.63;;;7.97;;
1404;SDS011;697;51.114;6.542;2023-09-07T03:17:00;8.27;;;6.97;;
1404;SDS011;697;51.114;6.542;2023-09-07T03:19:28;8.10;;;7.40;;
1404;SDS011;697;51.114;6.542;2023-09-07T03:21:56;6.97;;;6.27;;
1404;SDS011;697;51.114;6.542;2023-09-07T03:24:23;8.20;;;7.40;;
1404;SDS011;697;51.114;6.542;2023-09-07T03:26:51;7.70;;;7.00;;
1404;SDS011;697;51.114;6.542;2023-09-07T03:29:18;7.63;;;6.90;;
1404;SDS011;697;51.114;6.542;2023-09-07T03:31:45;10.80;;;8.37;;
1404;SDS011;697;51.114;6.542;2023-09-07T03:34:11;7.50;;;6.80;;
1404;SDS011;697;51.114;6.542;2023-09-07T03:36:38;7.50;;;6.80;;
1404;SDS011;697;51.114;6.542;2023-09-07T03:39:06;9.60;;;6.70;;
1404;SDS011;697;51.114;6.542;2023-09-07T03:41:35;7.80;;;7.00;;
1404;SDS011;697;51.114;6.542;2023-09-07T03:44:01;8.37;;;7.57;;
1404;SDS011;697;51.114;6.542;2023-09-07T03:46:28;7.70;;;6.83;;
1404;SDS011;697;51.114;6.542;2023-09-07T03:48:55;7.07;;;6.47;;
1404;SDS011;697;51.114;6.542;2023-09-07T03:51:21;7.00;;;6.30;;
1404;SDS011;697;51.114;6.542;2023-09-07T03:53:48;7.33;;;6.57;;
1404;SDS011;697;51.114;6.542;2023-09-07T03:56:16;7.03;;;6.43;;
1404;SDS011;697;51.114;6.542;2023-09-07T03:58:43;7.60;;;6.90;;
1404;SDS011;697;51.114;6.542;2023-09-07T04:01:12;7.90;;;7.20;;
1404;SDS011;697;51.114;6.542;2023-09-07T04:03:38;7.53;;;6.83;;
1404;SDS011;697;51.114;6.542;2023-09-07T04:06:06;6.70;;;6.10;;
1404;SDS011;697;51.114;6.542;2023-09-07T04:08:33;6.60;;;6.00;;
1404;SDS011;697;51.114;6.542;2023-09-07T04:11:03;7.57;;;6.97;;
1404;SDS011;697;51.114;6.542;2023-09-07T04:13:31;7.60;;;6.90;;
1404;SDS011;697;51.114;6.542;2023-09-07T04:15:58;8.03;;;7.30;;
1404;SDS011;697;51.114;6.542;2023-09-07T04:18:25;7.13;;;6.63;;
1404;SDS011;697;51.114;6.542;2023-09-07T04:20:52;8.13;;;6.53;;
1404;SDS011;697;51.114;6.542;2023-09-07T04:23:18;7.80;;;6.93;;
1404;SDS011;697;51.114;6.542;2023-09-07T04:25:45;9.63;;;6.30;;
1404;SDS011;697;51.114;6.542;2023-09-07T04:28:11;6.60;;;5.97;;
1404;SDS011;697;51.114;6.542;2023-09-07T04:30:41;7.63;;;6.83;;
1404;SDS011;697;51.114;6.542;2023-09-07T04:33:08;6.57;;;5.97;;
1404;SDS011;697;51.114;6.542;2023-09-07T04:35:34;8.13;;;6.73;;
1404;SDS011;697;51.114;6.542;2023-09-07T04:38:01;10.97;;;6.40;;
1404;SDS011;697;51.114;6.542;2023-09-07T04:40:28;6.70;;;6.03;;
1404;SDS011;697;51.114;6.542;2023-09-07T04:42:55;6.50;;;5.90;;
1404;SDS011;697;51.114;6.542;2023-09-07T04:45:22;6.70;;;6.00;;
1404;SDS011;697;51.114;6.542;2023-09-07T04:47:50;6.00;;;5.50;;
1404;SDS011;697;51.114;6.542;2023-09-07T04:50:17;6.23;;;5.67;;
1404;SDS011;697;51.114;6.542;2023-09-07T04:52:43;10.63;;;6.70;;
1404;SDS011;697;51.114;6.542;2023-09-07T04:55:10;11.80;;;6.90;;
1404;SDS011;697;51.114;6.542;2023-09-07T04:57:37;7.00;;;5.93;;
1404;SDS011;697;51.114;6.542;2023-09-07T05:00:04;8.93;;;7.27;;
1404;SDS011;697;51.114;6.542;2023-09-07T05:02:32;7.93;;;6.60;;
1404;SDS011;697;51.114;6.542;2023-09-07T05:05:05;7.07;;;6.10;;
1404;SDS011;697;51.114;6.542;2023-09-07T05:07:32;7.50;;;6.30;;
1404;SDS011;697;51.114;6.542;2023-09-07T05:09:59;8.47;;;6.80;;
1404;SDS011;697;51.114;6.542;2023-09-07T05:12:28;6.90;;;5.80;;
1404;SDS011;697;51.114;6.542;2023-09-07T05:14:55;6.80;;;6.10;;
1404;SDS011;697;51.114;6.542;2023-09-07T05:17:21;8.00;;;6.63;;
1404;SDS011;697;51.114;6.542;2023-09-07T05:19:48;6.37;;;5.13;;
1404;SDS011;697;51.114;6.542;2023-09-07T05:22:16;7.50;;;5.90;;
1404;SDS011;697;51.114;6.542;2023-09-07T05:24:43;6.80;;;6.20;;
1404;SDS011;697;51.114;6.542;2023-09-07T05:27:11;8.63;;;6.40;;
1404;SDS011;697;51.114;6.542;2023-09-07T05:29:38;6.60;;;5.60;;
1404;SDS011;697;51.114;6.542;2023-09-07T05:32:05;6.63;;;5.90;;
1404;SDS011;697;51.114;6.542;2023-09-07T05:34:34;6.10;;;5.30;;
1404;SDS011;697;51.114;6.542;2023-09-07T05:37:00;6.57;;;5.97;;
1404;SDS011;697;51.114;6.542;2023-09-07T05:39:28;6.27;;;5.70;;
1404;SDS011;697;51.114;6.542;2023-09-07T05:41:55;9.50;;;6.43;;
1404;SDS011;697;51.114;6.542;2023-09-07T05:44:22;6.47;;;5.87;;
1404;SDS011;697;51.114;6.542;2023-09-07T05:46:48;6.20;;;5.70;;
1404;SDS011;697;51.114;6.542;2023-09-07T05:49:15;6.67;;;5.97;;
1404;SDS011;697;51.114;6.542;2023-09-07T05:51:42;7.73;;;6.70;;
1404;SDS011;697;51.114;6.542;2023-09-07T05:54:08;7.60;;;6.80;;
1404;SDS011;697;51.114;6.542;2023-09-07T05:56:36;6.90;;;6.20;;
1404;SDS011;697;51.114;6.542;2023-09-07T05:59:04;7.30;;;6.70;;
1404;SDS011;697;51.114;6.542;2023-09-07T06:01:31;8.77;;;5.50;;
1404;SDS011;697;51.114;6.542;2023-09-07T06:03:58;10.13;;;5.47;;
1404;SDS011;697;51.114;6.542;2023-09-07T06:06:25;8.50;;;5.90;;
1404;SDS011;697;51.114;6.542;2023-09-07T06:08:51;7.10;;;6.40;;
1404;SDS011;697;51.114;6.542;2023-09-07T06:11:18;6.73;;;6.03;;
1404;SDS011;697;51.114;6.542;2023-09-07T06:13:46;6.17;;;5.57;;
1404;SDS011;697;51.114;6.542;2023-09-07T06:16:14;5.80;;;5.27;;
1404;SDS011;697;51.114;6.542;2023-09-07T06:18:41;8.20;;;5.20;;
1404;SDS011;697;51.114;6.542;2023-09-07T06:21:07;6.07;;;5.57;;
1404;SDS011;697;51.114;6.542;2023-09-07T06:23:34;6.27;;;5.67;;
1404;SDS011;697;51.114;6.542;2023-09-07T06:26:01;5.80;;;5.30;;
1404;SDS011;697;51.114;6.542;2023-09-07T06:28:28;7.27;;;6.00;;
1404;SDS011;697;51.114;6.542;2023-09-07T06:30:56;6.10;;;5.00;;
1404;SDS011;697;51.114;6.542;2023-09-07T06:33:22;5.53;;;5.10;;
1404;SDS011;697;51.114;6.542;2023-09-07T06:35:49;5.53;;;5.00;;
1404;SDS011;697;51.114;6.542;2023-09-07T06:38:15;5.87;;;5.27;;
1404;SDS011;697;51.114;6.542;2023-09-07T06:40:46;5.47;;;4.87;;
1404;SDS011;697;51.114;6.542;2023-09-07T06:43:13;6.80;;;5.70;;
1404;SDS011;697;51.114;6.542;2023-09-07T06:45:40;6.30;;;5.27;;
1404;SDS011;697;51.114;6.542;2023-09-07T06:48:08;6.93;;;5.00;;
1404;SDS011;697;51.114;6.542;2023-09-07T06:50:35;5.50;;;5.00;;
1404;SDS011;697;51.114;6.542;2023-09-07T06:53:02;5.40;;;4.50;;
1404;SDS011;697;51.114;6.542;2023-09-07T06:55:28;6.10;;;4.90;;
1404;SDS011;697;51.114;6.542;2023-09-07T06:57:55;6.73;;;5.30;;
1404;SDS011;697;51.114;6.542;2023-09-07T07:00:22;5.80;;;4.80;;
1404;SDS011;697;51.114;6.542;2023-09-07T07:02:49;5.70;;;4.90;;
1404;SDS011;697;51.114;6.542;2023-09-07T07:05:17;5.60;;;4.30;;
1404;SDS011;697;51.114;6.542;2023-09-07T07:07:43;5.07;;;4.10;;
1404;SDS011;697;51.114;6.542;2023-09-07T07:10:10;4.80;;;4.40;;
1404;SDS011;697;51.114;6.542;2023-09-07T07:12:37;6.40;;;4.90;;
1404;SDS011;697;51.114;6.542;2023-09-07T07:15:04;5.10;;;4.70;;
1404;SDS011;697;51.114;6.542;2023-09-07T07:17:32;4.40;;;4.10;;
1404;SDS011;697;51.114;6.542;2023-09-07T07:19:59;10.70;;;4.83;;
1404;SDS011;697;51.114;6.542;2023-09-07T07:22:27;4.47;;;4.07;;
1404;SDS011;697;51.114;6.542;2023-09-07T07:24:53;5.80;;;4.90;;
1404;SDS011;697;51.114;6.542;2023-09-07T07:27:20;6.20;;;4.47;;
1404;SDS011;697;51.114;6.542;2023-09-07T07:29:47;4.30;;;3.90;;
1404;SDS011;697;51.114;6.542;2023-09-07T07:32:13;5.90;;;5.40;;
1404;SDS011;697;51.114;6.542;2023-09-07T07:34:40;4.50;;;4.13;;
1404;SDS011;697;51.114;6.542;2023-09-07T07:37:08;4.23;;;3.87;;
1404;SDS011;697;51.114;6.542;2023-09-07T07:39:36;6.63;;;4.40;;
1404;SDS011;697;51.114;6.542;2023-09-07T07:42:03;6.30;;;4.23;;
1404;SDS011;697;51.114;6.542;2023-09-07T07:44:31;4.70;;;4.30;;
1404;SDS011;697;51.114;6.542;2023-09-07T07:46:57;4.80;;;4.40;;
1404;SDS011;697;51.114;6.542;2023-09-07T07:49:24;5.00;;;4.07;;
1404;SDS011;697;51.114;6.542;2023-09-07T07:51:52;4.67;;;4.23;;
1404;SDS011;697;51.114;6.542;2023-09-07T07:54:20;4.60;;;4.20;;
1404;SDS011;697;51.114;6.542;2023-09-07T07:56:49;6.70;;;4.57;;
1404;SDS011;697;51.114;6.542;2023-09-07T07:59:15;5.77;;;4.80;;
1404;SDS011;697;51.114;6.542;2023-09-07T08:01:42;5.73;;;5.07;;
1404;SDS011;697;51.114;6.542;2023-09-07T08:04:09;6.90;;;4.90;;
1404;SDS011;697;51.114;6.542;2023-09-07T08:06:36;6.00;;;4.10;;
1404;SDS011;697;51.114;6.542;2023-09-07T08:09:03;9.57;;;4.53;;
1404;SDS011;697;51.114;6.542;2023-09-07T08:11:30;6.23;;;5.37;;
1404;SDS011;697;51.114;6.542;2023-09-07T08:13:58;4.87;;;4.07;;
1404;SDS011;697;51.114;6.542;2023-09-07T08:16:25;5.17;;;4.67;;
1404;SDS011;697;51.114;6.542;2023-09-07T08:18:51;4.90;;;4.47;;
1404;SDS011;697;51.114;6.542;2023-09-07T08:21:18;5.63;;;4.67;;
1404;SDS011;697;51.114;6.542;2023-09-07T08:23:45;6.00;;;5.07;;
1404;SDS011;697;51.114;6.542;2023-09-07T08:26:11;7.10;;;4.53;;
1404;SDS011;697;51.114;6.542;2023-09-07T08:28:39;5.87;;;4.80;;
1404;SDS011;697;51.114;6.542;2023-09-07T08:31:07;7.73;;;4.90;;
1404;SDS011;697;51.114;6.542;2023-09-07T08:33:35;5.07;;;4.60;;
1404;SDS011;697;51.114;6.542;2023-09-07T08:36:05;6.60;;;5.20;;
1404;SDS011;697;51.114;6.542;2023-09-07T08:38:33;5.93;;;5.33;;
1404;SDS011;697;51.114;6.542;2023-09-07T08:41:01;6.33;;;5.10;;
1404;SDS011;697;51.114;6.542;2023-09-07T08:43:30;4.87;;;4.13;;
1404;SDS011;697;51.114;6.542;2023-09-07T08:46:04;5.43;;;4.60;;
1404;SDS011;697;51.114;6.542;2023-09-07T08:48:38;11.33;;;5.13;;
1404;SDS011;697;51.114;6.542;2023-09-07T08:51:05;4.13;;;3.83;;
1404;SDS011;697;51.114;6.542;2023-09-07T08:53:33;7.50;;;4.40;;
1404;SDS011;697;51.114;6.542;2023-09-07T08:56:01;5.13;;;4.63;;
1404;SDS011;697;51.114;6.542;2023-09-07T08:58:28;8.13;;;4.30;;
1404;SDS011;697;51.114;6.542;2023-09-07T09:00:57;4.30;;;3.90;;
1404;SDS011;697;51.114;6.542;2023-09-07T09:03:23;4.73;;;4.33;;
1404;SDS011;697;51.114;6.542;2023-09-07T09:05:52;4.20;;;3.83;;
1404;SDS011;697;51.114;6.542;2023-09-07T09:08:20;4.87;;;4.37;;
1404;SDS011;697;51.114;6.542;2023-09-07T09:10:49;4.83;;;4.43;;
1404;SDS011;697;51.114;6.542;2023-09-07T09:13:27;4.10;;;3.80;;
1404;SDS011;697;51.114;6.542;2023-09-07T09:15:54;6.50;;;4.30;;
1404;SDS011;697;51.114;6.542;2023-09-07T09:18:20;4.80;;;4.20;;
1404;SDS011;697;51.114;6.542;2023-09-07T09:20:47;4.30;;;4.00;;
1404;SDS011;697;51.114;6.542;2023-09-07T09:23:15;5.27;;;4.50;;
1404;SDS011;697;51.114;6.542;2023-09-07T09:25:42;4.17;;;3.87;;
1404;SDS011;697;51.114;6.542;2023-09-07T09:28:09;7.83;;;4.20;;
1404;SDS011;697;51.114;6.542;2023-09-07T09:30:36;5.97;;;4.00;;
1404;SDS011;697;51.114;6.542;2023-09-07T09:33:05;4.87;;;4.30;;
1404;SDS011;697;51.114;6.542;2023-09-07T09:35:32;4.87;;;4.40;;
1404;SDS011;697;51.114;6.542;2023-09-07T09:38:01;4.93;;;4.50;;
1404;SDS011;697;51.114;6.542;2023-09-07T09:40:30;6.30;;;3.90;;
1404;SDS011;697;51.114;6.542;2023-09-07T09:42:57;5.03;;;4.53;;
1404;SDS011;697;51.114;6.542;2023-09-07T09:45:25;4.53;;;4.20;;
1404;SDS011;697;51.114;6.542;2023-09-07T09:47:53;5.53;;;4.93;;
1404;SDS011;697;51.114;6.542;2023-09-07T09:50:21;4.50;;;4.17;;
1404;SDS011;697;51.114;6.542;2023-09-07T09:52:49;4.83;;;4.20;;
1404;SDS011;697;51.114;6.542;2023-09-07T09:55:18;4.57;;;3.97;;
1404;SDS011;697;51.114;6.542;2023-09-07T09:57:46;4.87;;;4.37;;
1404;SDS011;697;51.114;6.542;2023-09-07T10:00:13;4.43;;;4.03;;
1404;SDS011;697;51.114;6.542;2023-09-07T10:02:53;10.40;;;4.43;;
1404;SDS011;697;51.114;6.542;2023-09-07T10:05:25;6.73;;;4.60;;
1404;SDS011;697;51.114;6.542;2023-09-07T10:07:53;5.77;;;4.30;;
1404;SDS011;697;51.114;6.542;2023-09-07T10:10:25;5.20;;;4.80;;
1404;SDS011;697;51.114;6.542;2023-09-07T10:12:54;5.77;;;5.23;;
1404;SDS011;697;51.114;6.542;2023-09-07T10:15:21;4.80;;;4.37;;
1404;SDS011;697;51.114;6.542;2023-09-07T10:17:49;5.37;;;4.90;;
1404;SDS011;697;51.114;6.542;2023-09-07T10:20:18;6.33;;;5.47;;
1404;SDS011;697;51.114;6.542;2023-09-07T10:22:47;10.50;;;4.70;;
1404;SDS011;697;51.114;6.542;2023-09-07T10:25:18;4.80;;;4.40;;
1404;SDS011;697;51.114;6.542;2023-09-07T10:27:45;7.07;;;4.43;;
1404;SDS011;697;51.114;6.542;2023-09-07T10:30:14;7.00;;;4.90;;
1404;SDS011;697;51.114;6.542;2023-09-07T10:32:44;5.03;;;4.53;;
1404;SDS011;697;51.114;6.542;2023-09-07T10:35:12;4.70;;;4.38;;
1404;SDS011;697;51.114;6.542;2023-09-07T10:37:44;7.90;;;4.78;;
1404;SDS011;697;51.114;6.542;2023-09-07T10:40:11;4.63;;;4.22;;
1404;SDS011;697;51.114;6.542;2023-09-07T10:42:41;4.68;;;4.07;;
1404;SDS011;697;51.114;6.542;2023-09-07T10:45:08;4.32;;;4.03;;
1404;SDS011;697;51.114;6.542;2023-09-07T10:47:41;4.80;;;4.40;;
1404;SDS011;697;51.114;6.542;2023-09-07T10:50:09;6.50;;;4.30;;
1404;SDS011;697;51.114;6.542;2023-09-07T10:52:38;7.55;;;4.28;;
1404;SDS011;697;51.114;6.542;2023-09-07T10:55:06;4.88;;;4.35;;
1404;SDS011;697;51.114;6.542;2023-09-07T10:57:40;9.75;;;3.95;;
1404;SDS011;697;51.114;6.542;2023-09-07T11:00:09;4.10;;;3.80;;
1404;SDS011;697;51.114;6.542;2023-09-07T11:02:37;3.95;;;3.63;;
1404;SDS011;697;51.114;6.542;2023-09-07T11:05:05;7.22;;;4.20;;
1404;SDS011;697;51.114;6.542;2023-09-07T11:07:32;6.95;;;3.60;;
1404;SDS011;697;51.114;6.542;2023-09-07T11:09:59;4.95;;;3.72;;
1404;SDS011;697;51.114;6.542;2023-09-07T11:12:29;4.00;;;3.55;;
1404;SDS011;697;51.114;6.542;2023-09-07T11:14:55;3.92;;;3.40;;
1404;SDS011;697;51.114;6.542;2023-09-07T11:17:25;5.07;;;3.85;;
1404;SDS011;697;51.114;6.542;2023-09-07T11:19:53;4.28;;;3.70;;
1404;SDS011;697;51.114;6.542;2023-09-07T11:22:21;3.92;;;3.63;;
1404;SDS011;697;51.114;6.542;2023-09-07T11:24:48;10.48;;;4.22;;
1404;SDS011;697;51.114;6.542;2023-09-07T11:27:16;4.20;;;3.50;;
1404;SDS011;697;51.114;6.542;2023-09-07T11:29:49;5.70;;;3.63;;
1404;SDS011;697;51.114;6.542;2023-09-07T11:32:17;5.45;;;3.10;;
1404;SDS011;697;51.114;6.542;2023-09-07T11:34:46;3.38;;;3.08;;
1404;SDS011;697;51.114;6.542;2023-09-07T11:37:15;4.35;;;3.25;;
1404;SDS011;697;51.114;6.542;2023-09-07T11:39:43;3.60;;;3.15;;
1404;SDS011;697;51.114;6.542;2023-09-07T11:42:10;3.78;;;3.42;;
1404;SDS011;697;51.114;6.542;2023-09-07T11:44:37;3.65;;;3.30;;
1404;SDS011;697;51.114;6.542;2023-09-07T11:47:03;3.70;;;2.88;;
1404;SDS011;697;51.114;6.542;2023-09-07T11:49:30;4.43;;;3.05;;
1404;SDS011;697;51.114;6.542;2023-09-07T11:51:57;5.80;;;2.92;;
1404;SDS011;697;51.114;6.542;2023-09-07T11:54:24;2.70;;;2.50;;
1404;SDS011;697;51.114;6.542;2023-09-07T11:56:52;3.30;;;2.95;;
1404;SDS011;697;51.114;6.542;2023-09-07T11:59:19;4.30;;;3.15;;
1404;SDS011;697;51.114;6.542;2023-09-07T12:01:46;4.00;;;3.70;;
1404;SDS011;697;51.114;6.542;2023-09-07T12:04:13;5.20;;;3.20;;
1404;SDS011;697;51.114;6.542;2023-09-07T12:06:40;3.10;;;2.80;;
1404;SDS011;697;51.114;6.542;2023-09-07T12:09:07;3.17;;;2.97;;
1404;SDS011;697;51.114;6.542;2023-09-07T12:11:34;3.42;;;3.13;;
1404;SDS011;697;51.114;6.542;2023-09-07T12:14:03;4.05;;;3.10;;
1404;SDS011;697;51.114;6.542;2023-09-07T12:16:30;3.83;;;3.30;;
1404;SDS011;697;51.114;6.542;2023-09-07T12:18:57;4.40;;;3.17;;
1404;SDS011;697;51.114;6.542;2023-09-07T12:21:24;3.35;;;3.05;;
1404;SDS011;697;51.114;6.542;2023-09-07T12:23:50;4.30;;;2.92;;
1404;SDS011;697;51.114;6.542;2023-09-07T12:26:17;5.28;;;2.80;;
1404;SDS011;697;51.114;6.542;2023-09-07T12:28:45;4.50;;;3.22;;
1404;SDS011;697;51.114;6.542;2023-09-07T12:31:14;4.45;;;3.10;;
1404;SDS011;697;51.114;6.542;2023-09-07T12:33:41;3.28;;;2.97;;
1404;SDS011;697;51.114;6.542;2023-09-07T12:36:11;3.97;;;3.58;;
1404;SDS011;697;51.114;6.542;2023-09-07T12:38:38;3.58;;;2.85;;
1404;SDS011;697;51.114;6.542;2023-09-07T12:41:04;3.55;;;3.10;;
1404;SDS011;697;51.114;6.542;2023-09-07T12:43:31;3.40;;;3.10;;
1404;SDS011;697;51.114;6.542;2023-09-07T12:45:58;3.67;;;3.38;;
1404;SDS011;697;51.114;6.542;2023-09-07T12:48:26;4.15;;;3.85;;
1404;SDS011;697;51.114;6.542;2023-09-07T12:50:53;3.47;;;3.17;;
1404;SDS011;697;51.114;6.542;2023-09-07T12:53:20;5.88;;;4.32;;
1404;SDS011;697;51.114;6.542;2023-09-07T12:55:49;8.80;;;5.82;;
1404;SDS011;697;51.114;6.542;2023-09-07T12:58:17;3.90;;;3.60;;
1404;SDS011;697;51.114;6.542;2023-09-07T13:00:43;3.30;;;3.10;;
1404;SDS011;697;51.114;6.542;2023-09-07T13:03:10;9.75;;;3.78;;
1404;SDS011;697;51.114;6.542;2023-09-07T13:05:39;4.03;;;2.88;;
1404;SDS011;697;51.114;6.542;2023-09-07T13:08:05;3.75;;;3.13;;
1404;SDS011;697;51.114;6.542;2023-09-07T13:10:32;5.60;;;3.10;;
1404;SDS011;697;51.114;6.542;2023-09-07T13:12:59;4.22;;;3.40;;
1404;SDS011;697;51.114;6.542;2023-09-07T13:15:26;4.63;;;2.90;;
1404;SDS011;697;51.114;6.542;2023-09-07T13:17:52;4.25;;;2.83;;
1404;SDS011;697;51.114;6.542;2023-09-07T13:20:19;3.03;;;2.83;;
1404;SDS011;697;51.114;6.542;2023-09-07T13:22:47;3.22;;;3.00;;
1404;SDS011;697;51.114;6.542;2023-09-07T13:25:14;4.80;;;3.05;;
1404;SDS011;697;51.114;6.542;2023-09-07T13:27:41;3.10;;;2.78;;
1404;SDS011;697;51.114;6.542;2023-09-07T13:30:08;3.78;;;3.00;;
1404;SDS011;697;51.114;6.542;2023-09-07T13:32:37;3.22;;;2.92;;
1404;SDS011;697;51.114;6.542;2023-09-07T13:35:04;3.25;;;3.05;;
1404;SDS011;697;51.114;6.542;2023-09-07T13:37:31;2.90;;;2.70;;
1404;SDS011;697;51.114;6.542;2023-09-07T13:40:00;3.20;;;2.97;;
1404;SDS011;697;51.114;6.542;2023-09-07T13:42:28;4.70;;;3.03;;
1404;SDS011;697;51.114;6.542;2023-09-07T13:44:55;3.33;;;3.00;;
1404;SDS011;697;51.114;6.542;2023-09-07T13:47:22;3.88;;;3.30;;
1404;SDS011;697;51.114;6.542;2023-09-07T13:49:48;3.33;;;2.97;;
1404;SDS011;697;51.114;6.542;2023-09-07T13:52:15;3.58;;;3.00;;
1404;SDS011;697;51.114;6.542;2023-09-07T13:54:42;3.30;;;2.90;;
1404;SDS011;697;51.114;6.542;2023-09-07T13:57:10;3.28;;;2.88;;
1404;SDS011;697;51.114;6.542;2023-09-07T13:59:37;3.25;;;2.92;;
1404;SDS011;697;51.114;6.542;2023-09-07T14:02:04;4.18;;;3.40;;
1404;SDS011;697;51.114;6.542;2023-09-07T14:04:30;3.08;;;2.88;;
1404;SDS011;697;51.114;6.542;2023-09-07T14:06:57;5.35;;;3.40;;
1404;SDS011;697;51.114;6.542;2023-09-07T14:09:23;4.65;;;3.00;;
1404;SDS011;697;51.114;6.542;2023-09-07T14:11:50;2.92;;;2.65;;
1404;SDS011;697;51.114;6.542;2023-09-07T14:14:18;4.72;;;2.97;;
1404;SDS011;697;51.114;6.542;2023-09-07T14:16:46;3.33;;;2.60;;
1404;SDS011;697;51.114;6.542;2023-09-07T14:19:14;3.05;;;2.70;;
1404;SDS011;697;51.114;6.542;2023-09-07T14:21:41;4.15;;;3.40;;
1404;SDS011;697;51.114;6.542;2023-09-07T14:24:07;6.03;;;3.20;;
1404;SDS011;697;51.114;6.542;2023-09-07T14:26:34;3.20;;;2.95;;
1404;SDS011;697;51.114;6.542;2023-09-07T14:29:01;3.70;;;3.08;;
1404;SDS011;697;51.114;6.542;2023-09-07T14:31:29;3.38;;;2.78;;
1404;SDS011;697;51.114;6.542;2023-09-07T14:33:55;3.55;;;3.25;;
1404;SDS011;697;51.114;6.542;2023-09-07T14:36:22;3.40;;;2.78;;
1404;SDS011;697;51.114;6.542;2023-09-07T14:38:49;3.28;;;3.03;;
1404;SDS011;697;51.114;6.542;2023-09-07T14:41:16;2.95;;;2.75;;
1404;SDS011;697;51.114;6.542;2023-09-07T14:43:44;3.10;;;2.80;;
1404;SDS011;697;51.114;6.542;2023-09-07T14:46:11;3.50;;;3.20;;
1404;SDS011;697;51.114;6.542;2023-09-07T14:48:39;2.92;;;2.70;;
1404;SDS011;697;51.114;6.542;2023-09-07T14:51:06;3.85;;;3.03;;
1404;SDS011;697;51.114;6.542;2023-09-07T14:53:33;3.42;;;2.90;;
1404;SDS011;697;51.114;6.542;2023-09-07T14:56:00;2.90;;;2.70;;
1404;SDS011;697;51.114;6.542;2023-09-07T14:58:27;3.35;;;2.90;;
1404;SDS011;697;51.114;6.542;2023-09-07T15:00:54;3.22;;;2.92;;
1404;SDS011;697;51.114;6.542;2023-09-07T15:03:20;2.97;;;2.78;;
1404;SDS011;697;51.114;6.542;2023-09-07T15:05:48;3.85;;;2.95;;
1404;SDS011;697;51.114;6.542;2023-09-07T15:08:15;3.67;;;2.60;;
1404;SDS011;697;51.114;6.542;2023-09-07T15:10:42;5.63;;;3.10;;
1404;SDS011;697;51.114;6.542;2023-09-07T15:13:09;3.25;;;3.05;;
1404;SDS011;697;51.114;6.542;2023-09-07T15:15:36;2.78;;;2.63;;
1404;SDS011;697;51.114;6.542;2023-09-07T15:18:04;2.85;;;2.65;;
1404;SDS011;697;51.114;6.542;2023-09-07T15:20:32;3.78;;;3.10;;
1404;SDS011;697;51.114;6.542;2023-09-07T15:23:00;4.32;;;3.30;;
1404;SDS011;697;51.114;6.542;2023-09-07T15:25:28;3.50;;;3.20;;
1404;SDS011;697;51.114;6.542;2023-09-07T15:27:55;4.75;;;2.67;;
1404;SDS011;697;51.114;6.542;2023-09-07T15:30:22;5.18;;;2.80;;